sensor_id;sensor_type;location;lat;lon;timestamp;P1;durP1;ratioP1;P2;durP2;ratioP2
9052;SDS011;4561;47.450;7.516;2023-09-12T00:01:08;8.27;;;7.47;;
9052;SDS011;4561;47.450;7.516;2023-09-12T00:04:32;8.23;;;7.53;;
9052;SDS011;4561;47.450;7.516;2023-09-12T00:07:55;7.50;;;6.80;;
9052;SDS011;4561;47.450;7.516;2023-09-12T00:11:20;7.80;;;7.10;;
9052;SDS011;4561;47.450;7.516;2023-09-12T00:14:40;8.07;;;7.00;;
9052;SDS011;4561;47.450;7.516;2023-09-12T00:18:00;8.40;;;7.60;;
9052;SDS011;4561;47.450;7.516;2023-09-12T00:21:21;8.00;;;7.23;;
9052;SDS011;4561;47.450;7.516;2023-09-12T00:24:43;8.50;;;7.73;;
9052;SDS011;4561;47.450;7.516;2023-09-12T00:28:04;7.90;;;7.30;;
9052;SDS011;4561;47.450;7.516;2023-09-12T00:31:24;9.90;;;8.13;;
9052;SDS011;4561;47.450;7.516;2023-09-12T00:34:44;9.77;;;7.90;;
9052;SDS011;4561;47.450;7.516;2023-09-12T00:38:08;7.63;;;6.93;;
9052;SDS011;4561;47.450;7.516;2023-09-12T00:41:29;6.90;;;6.40;;
9052;SDS011;4561;47.450;7.516;2023-09-12T00:44:49;7.53;;;6.80;;
9052;SDS011;4561;47.450;7.516;2023-09-12T00:48:12;8.27;;;7.10;;
9052;SDS011;4561;47.450;7.516;2023-09-12T00:51:33;7.80;;;7.10;;
9052;SDS011;4561;47.450;7.516;2023-09-12T00:54:54;8.50;;;7.70;;
9052;SDS011;4561;47.450;7.516;2023-09-12T00:58:17;8.07;;;7.37;;
9052;SDS011;4561;47.450;7.516;2023-09-12T01:01:38;8.57;;;7.77;;
9052;SDS011;4561;47.450;7.516;2023-09-12T01:05:01;7.90;;;7.30;;
9052;SDS011;4561;47.450;7.516;2023-09-12T01:08:21;8.00;;;7.27;;
9052;SDS011;4561;47.450;7.516;2023-09-12T01:11:42;10.33;;;7.30;;
9052;SDS011;4561;47.450;7.516;2023-09-12T01:15:02;8.07;;;7.37;;
9052;SDS011;4561;47.450;7.516;2023-09-12T01:18:28;8.33;;;7.00;;
9052;SDS011;4561;47.450;7.516;2023-09-12T01:29:35;7.43;;;6.80;;
9052;SDS011;4561;47.450;7.516;2023-09-12T01:32:56;7.90;;;7.20;;
9052;SDS011;4561;47.450;7.516;2023-09-12T01:36:16;10.13;;;7.37;;
9052;SDS011;4561;47.450;7.516;2023-09-12T01:39:38;8.10;;;7.30;;
9052;SDS011;4561;47.450;7.516;2023-09-12T01:43:03;8.23;;;7.43;;
9052;SDS011;4561;47.450;7.516;2023-09-12T01:46:27;7.37;;;6.77;;
9052;SDS011;4561;47.450;7.516;2023-09-12T01:49:50;7.43;;;6.77;;
9052;SDS011;4561;47.450;7.516;2023-09-12T01:53:16;8.70;;;6.83;;
9052;SDS011;4561;47.450;7.516;2023-09-12T01:56:39;7.93;;;7.23;;
9052;SDS011;4561;47.450;7.516;2023-09-12T02:00:03;9.30;;;7.00;;
9052;SDS011;4561;47.450;7.516;2023-09-12T02:03:24;8.60;;;7.63;;
9052;SDS011;4561;47.450;7.516;2023-09-12T02:06:48;8.87;;;7.97;;
9052;SDS011;4561;47.450;7.516;2023-09-12T02:10:08;8.83;;;7.87;;
9052;SDS011;4561;47.450;7.516;2023-09-12T02:13:29;10.07;;;6.80;;
9052;SDS011;4561;47.450;7.516;2023-09-12T02:16:50;8.57;;;7.70;;
9052;SDS011;4561;47.450;7.516;2023-09-12T02:20:12;7.67;;;6.97;;
9052;SDS011;4561;47.450;7.516;2023-09-12T02:23:33;7.73;;;7.03;;
9052;SDS011;4561;47.450;7.516;2023-09-12T02:26:56;7.70;;;6.93;;
9052;SDS011;4561;47.450;7.516;2023-09-12T02:30:16;8.53;;;7.43;;
9052;SDS011;4561;47.450;7.516;2023-09-12T02:33:40;8.03;;;7.43;;
9052;SDS011;4561;47.450;7.516;2023-09-12T02:37:02;7.67;;;6.83;;
9052;SDS011;4561;47.450;7.516;2023-09-12T02:40:23;7.60;;;7.00;;
9052;SDS011;4561;47.450;7.516;2023-09-12T02:43:44;10.63;;;7.40;;
9052;SDS011;4561;47.450;7.516;2023-09-12T02:47:05;8.10;;;7.33;;
9052;SDS011;4561;47.450;7.516;2023-09-12T02:50:30;8.30;;;7.50;;
9052;SDS011;4561;47.450;7.516;2023-09-12T02:53:53;8.00;;;7.30;;
9052;SDS011;4561;47.450;7.516;2023-09-12T02:57:13;7.83;;;7.13;;
9052;SDS011;4561;47.450;7.516;2023-09-12T03:00:37;8.23;;;7.53;;
9052;SDS011;4561;47.450;7.516;2023-09-12T03:04:00;9.00;;;8.10;;
9052;SDS011;4561;47.450;7.516;2023-09-12T03:07:21;7.93;;;7.17;;
9052;SDS011;4561;47.450;7.516;2023-09-12T03:10:44;8.30;;;7.50;;
9052;SDS011;4561;47.450;7.516;2023-09-12T03:14:06;8.90;;;7.50;;
9052;SDS011;4561;47.450;7.516;2023-09-12T03:17:28;9.10;;;7.13;;
9052;SDS011;4561;47.450;7.516;2023-09-12T03:20:48;7.70;;;7.00;;
9052;SDS011;4561;47.450;7.516;2023-09-12T03:24:08;10.80;;;7.47;;
9052;SDS011;4561;47.450;7.516;2023-09-12T03:27:29;7.77;;;7.07;;
9052;SDS011;4561;47.450;7.516;2023-09-12T03:30:49;8.40;;;7.60;;
9052;SDS011;4561;47.450;7.516;2023-09-12T03:34:12;8.97;;;8.17;;
9052;SDS011;4561;47.450;7.516;2023-09-12T03:37:32;8.63;;;7.43;;
9052;SDS011;4561;47.450;7.516;2023-09-12T03:40:52;8.13;;;7.33;;
9052;SDS011;4561;47.450;7.516;2023-09-12T03:44:13;9.53;;;7.43;;
9052;SDS011;4561;47.450;7.516;2023-09-12T03:47:33;10.73;;;7.80;;
9052;SDS011;4561;47.450;7.516;2023-09-12T03:50:54;8.77;;;8.00;;
9052;SDS011;4561;47.450;7.516;2023-09-12T03:54:14;8.73;;;7.37;;
9052;SDS011;4561;47.450;7.516;2023-09-12T03:57:34;8.80;;;8.00;;
9052;SDS011;4561;47.450;7.516;2023-09-12T04:00:55;8.43;;;7.63;;
9052;SDS011;4561;47.450;7.516;2023-09-12T04:04:15;7.53;;;6.77;;
9052;SDS011;4561;47.450;7.516;2023-09-12T04:07:36;8.27;;;7.47;;
9052;SDS011;4561;47.450;7.516;2023-09-12T04:10:56;7.43;;;6.63;;
9052;SDS011;4561;47.450;7.516;2023-09-12T04:14:16;8.20;;;7.40;;
9052;SDS011;4561;47.450;7.516;2023-09-12T04:17:37;13.53;;;7.67;;
9052;SDS011;4561;47.450;7.516;2023-09-12T04:20:57;10.23;;;8.20;;
9052;SDS011;4561;47.450;7.516;2023-09-12T04:24:17;7.73;;;6.93;;
9052;SDS011;4561;47.450;7.516;2023-09-12T04:27:41;8.03;;;7.27;;
9052;SDS011;4561;47.450;7.516;2023-09-12T04:31:05;7.23;;;6.47;;
9052;SDS011;4561;47.450;7.516;2023-09-12T04:34:25;7.40;;;6.73;;
9052;SDS011;4561;47.450;7.516;2023-09-12T04:37:49;7.77;;;7.17;;
9052;SDS011;4561;47.450;7.516;2023-09-12T04:41:11;8.30;;;7.50;;
9052;SDS011;4561;47.450;7.516;2023-09-12T04:44:38;11.40;;;8.23;;
9052;SDS011;4561;47.450;7.516;2023-09-12T04:47:59;8.33;;;7.53;;
9052;SDS011;4561;47.450;7.516;2023-09-12T04:51:20;8.27;;;7.37;;
9052;SDS011;4561;47.450;7.516;2023-09-12T04:54:40;9.77;;;7.30;;
9052;SDS011;4561;47.450;7.516;2023-09-12T04:58:00;7.80;;;7.10;;
9052;SDS011;4561;47.450;7.516;2023-09-12T05:01:21;7.87;;;7.13;;
9052;SDS011;4561;47.450;7.516;2023-09-12T05:04:45;12.93;;;8.77;;
9052;SDS011;4561;47.450;7.516;2023-09-12T05:08:08;9.40;;;8.33;;
9052;SDS011;4561;47.450;7.516;2023-09-12T05:11:29;8.20;;;7.40;;
9052;SDS011;4561;47.450;7.516;2023-09-12T05:14:57;6.97;;;6.30;;
9052;SDS011;4561;47.450;7.516;2023-09-12T05:18:18;10.93;;;7.60;;
9052;SDS011;4561;47.450;7.516;2023-09-12T05:21:40;8.03;;;7.23;;
9052;SDS011;4561;47.450;7.516;2023-09-12T05:25:00;8.00;;;6.93;;
9052;SDS011;4561;47.450;7.516;2023-09-12T05:28:24;7.23;;;6.47;;
9052;SDS011;4561;47.450;7.516;2023-09-12T05:31:47;8.73;;;7.43;;
9052;SDS011;4561;47.450;7.516;2023-09-12T05:35:07;7.63;;;6.93;;
9052;SDS011;4561;47.450;7.516;2023-09-12T05:38:28;9.80;;;7.17;;
9052;SDS011;4561;47.450;7.516;2023-09-12T05:41:48;7.77;;;7.07;;
9052;SDS011;4561;47.450;7.516;2023-09-12T05:45:09;9.97;;;6.73;;
9052;SDS011;4561;47.450;7.516;2023-09-12T05:48:32;8.37;;;7.27;;
9052;SDS011;4561;47.450;7.516;2023-09-12T05:51:52;7.90;;;7.20;;
9052;SDS011;4561;47.450;7.516;2023-09-12T05:55:13;8.53;;;7.70;;
9052;SDS011;4561;47.450;7.516;2023-09-12T05:58:39;8.10;;;7.40;;
9052;SDS011;4561;47.450;7.516;2023-09-12T06:02:02;8.83;;;7.93;;
9052;SDS011;4561;47.450;7.516;2023-09-12T06:05:24;7.87;;;7.07;;
9052;SDS011;4561;47.450;7.516;2023-09-12T06:08:49;7.40;;;6.70;;
9052;SDS011;4561;47.450;7.516;2023-09-12T06:12:09;8.73;;;7.77;;
9052;SDS011;4561;47.450;7.516;2023-09-12T06:15:29;10.30;;;7.60;;
9052;SDS011;4561;47.450;7.516;2023-09-12T06:18:52;8.90;;;7.93;;
9052;SDS011;4561;47.450;7.516;2023-09-12T06:22:15;9.67;;;7.67;;
9052;SDS011;4561;47.450;7.516;2023-09-12T06:25:37;8.50;;;7.67;;
9052;SDS011;4561;47.450;7.516;2023-09-12T06:28:57;9.63;;;8.00;;
9052;SDS011;4561;47.450;7.516;2023-09-12T06:32:18;11.70;;;7.47;;
9052;SDS011;4561;47.450;7.516;2023-09-12T06:35:39;10.87;;;7.17;;
9052;SDS011;4561;47.450;7.516;2023-09-12T06:39:01;8.20;;;7.37;;
9052;SDS011;4561;47.450;7.516;2023-09-12T06:42:25;10.65;;;7.47;;
9052;SDS011;4561;47.450;7.516;2023-09-12T06:45:47;9.10;;;7.38;;
9052;SDS011;4561;47.450;7.516;2023-09-12T06:49:08;7.70;;;6.75;;
9052;SDS011;4561;47.450;7.516;2023-09-12T06:52:30;8.60;;;7.80;;
9052;SDS011;4561;47.450;7.516;2023-09-12T06:55:53;10.73;;;7.43;;
9052;SDS011;4561;47.450;7.516;2023-09-12T06:59:17;8.05;;;7.05;;
9052;SDS011;4561;47.450;7.516;2023-09-12T07:02:38;11.02;;;7.38;;
9052;SDS011;4561;47.450;7.516;2023-09-12T07:06:00;8.55;;;7.85;;
9052;SDS011;4561;47.450;7.516;2023-09-12T07:09:23;8.23;;;7.38;;
9052;SDS011;4561;47.450;7.516;2023-09-12T07:12:44;9.05;;;8.05;;
9052;SDS011;4561;47.450;7.516;2023-09-12T07:16:04;8.20;;;7.38;;
9052;SDS011;4561;47.450;7.516;2023-09-12T07:19:28;7.57;;;6.97;;
9052;SDS011;4561;47.450;7.516;2023-09-12T07:22:50;9.15;;;6.70;;
9052;SDS011;4561;47.450;7.516;2023-09-12T07:26:11;7.28;;;6.65;;
9052;SDS011;4561;47.450;7.516;2023-09-12T07:29:33;7.68;;;7.07;;
9052;SDS011;4561;47.450;7.516;2023-09-12T07:32:56;7.25;;;6.53;;
9052;SDS011;4561;47.450;7.516;2023-09-12T07:36:16;8.00;;;6.35;;
9052;SDS011;4561;47.450;7.516;2023-09-12T07:39:37;9.75;;;7.00;;
9052;SDS011;4561;47.450;7.516;2023-09-12T07:42:59;8.02;;;7.22;;
9052;SDS011;4561;47.450;7.516;2023-09-12T07:46:20;8.13;;;7.32;;
9052;SDS011;4561;47.450;7.516;2023-09-12T07:49:40;7.47;;;6.88;;
9052;SDS011;4561;47.450;7.516;2023-09-12T07:53:03;8.32;;;7.35;;
9052;SDS011;4561;47.450;7.516;2023-09-12T07:56:24;10.75;;;7.40;;
9052;SDS011;4561;47.450;7.516;2023-09-12T07:59:45;9.88;;;7.15;;
9052;SDS011;4561;47.450;7.516;2023-09-12T08:03:09;8.18;;;7.43;;
9052;SDS011;4561;47.450;7.516;2023-09-12T08:06:30;11.63;;;6.90;;
9052;SDS011;4561;47.450;7.516;2023-09-12T08:09:54;8.35;;;7.03;;
9052;SDS011;4561;47.450;7.516;2023-09-12T08:13:19;10.27;;;7.22;;
9052;SDS011;4561;47.450;7.516;2023-09-12T08:16:41;8.32;;;7.43;;
9052;SDS011;4561;47.450;7.516;2023-09-12T08:20:02;7.90;;;7.20;;
9052;SDS011;4561;47.450;7.516;2023-09-12T08:23:23;9.10;;;6.70;;
9052;SDS011;4561;47.450;7.516;2023-09-12T08:26:43;9.45;;;7.05;;
9052;SDS011;4561;47.450;7.516;2023-09-12T08:30:04;9.50;;;7.20;;
9052;SDS011;4561;47.450;7.516;2023-09-12T08:33:26;8.02;;;7.00;;
9052;SDS011;4561;47.450;7.516;2023-09-12T08:36:47;6.93;;;6.22;;
9052;SDS011;4561;47.450;7.516;2023-09-12T08:40:08;7.25;;;6.65;;
9052;SDS011;4561;47.450;7.516;2023-09-12T08:43:30;7.68;;;6.97;;
9052;SDS011;4561;47.450;7.516;2023-09-12T08:46:50;7.78;;;7.00;;
9052;SDS011;4561;47.450;7.516;2023-09-12T08:50:11;9.88;;;7.75;;
9052;SDS011;4561;47.450;7.516;2023-09-12T08:53:33;9.48;;;7.80;;
9052;SDS011;4561;47.450;7.516;2023-09-12T08:56:56;11.65;;;7.80;;
9052;SDS011;4561;47.450;7.516;2023-09-12T09:00:21;8.07;;;7.32;;
9052;SDS011;4561;47.450;7.516;2023-09-12T09:03:42;7.97;;;7.30;;
9052;SDS011;4561;47.450;7.516;2023-09-12T09:07:06;9.20;;;7.03;;
9052;SDS011;4561;47.450;7.516;2023-09-12T09:10:28;7.35;;;6.60;;
9052;SDS011;4561;47.450;7.516;2023-09-12T09:13:52;9.20;;;7.22;;
9052;SDS011;4561;47.450;7.516;2023-09-12T09:17:12;7.30;;;6.40;;
9052;SDS011;4561;47.450;7.516;2023-09-12T09:20:35;8.32;;;6.40;;
9052;SDS011;4561;47.450;7.516;2023-09-12T09:24:01;12.30;;;5.55;;
9052;SDS011;4561;47.450;7.516;2023-09-12T09:27:33;6.75;;;5.55;;
9052;SDS011;4561;47.450;7.516;2023-09-12T09:30:56;10.75;;;5.43;;
9052;SDS011;4561;47.450;7.516;2023-09-12T09:34:20;5.97;;;5.45;;
9052;SDS011;4561;47.450;7.516;2023-09-12T09:37:41;7.60;;;5.25;;
9052;SDS011;4561;47.450;7.516;2023-09-12T09:41:06;7.50;;;5.47;;
9052;SDS011;4561;47.450;7.516;2023-09-12T09:44:26;6.35;;;5.28;;
9052;SDS011;4561;47.450;7.516;2023-09-12T09:47:51;6.03;;;5.22;;
9052;SDS011;4561;47.450;7.516;2023-09-12T09:51:14;5.70;;;5.20;;
9052;SDS011;4561;47.450;7.516;2023-09-12T09:54:36;6.53;;;4.90;;
9052;SDS011;4561;47.450;7.516;2023-09-12T09:58:06;6.85;;;5.13;;
9052;SDS011;4561;47.450;7.516;2023-09-12T10:01:29;5.50;;;4.70;;
9052;SDS011;4561;47.450;7.516;2023-09-12T10:04:52;8.18;;;5.45;;
9052;SDS011;4561;47.450;7.516;2023-09-12T10:08:14;5.15;;;4.60;;
9052;SDS011;4561;47.450;7.516;2023-09-12T10:11:38;6.53;;;4.80;;
9052;SDS011;4561;47.450;7.516;2023-09-12T10:15:01;6.32;;;4.80;;
9052;SDS011;4561;47.450;7.516;2023-09-12T10:18:24;5.88;;;4.63;;
9052;SDS011;4561;47.450;7.516;2023-09-12T10:25:50;5.28;;;4.40;;
9052;SDS011;4561;47.450;7.516;2023-09-12T10:29:13;9.07;;;4.10;;
9052;SDS011;4561;47.450;7.516;2023-09-12T10:32:35;5.30;;;4.47;;
9052;SDS011;4561;47.450;7.516;2023-09-12T10:35:58;7.75;;;5.07;;
9052;SDS011;4561;47.450;7.516;2023-09-12T10:39:23;9.18;;;4.97;;
9052;SDS011;4561;47.450;7.516;2023-09-12T10:42:47;9.75;;;4.82;;
9052;SDS011;4561;47.450;7.516;2023-09-12T10:46:08;6.63;;;4.88;;
9052;SDS011;4561;47.450;7.516;2023-09-12T10:49:31;11.00;;;6.75;;
9052;SDS011;4561;47.450;7.516;2023-09-12T10:52:51;6.10;;;4.53;;
9052;SDS011;4561;47.450;7.516;2023-09-12T10:59:34;4.97;;;4.47;;
9052;SDS011;4561;47.450;7.516;2023-09-12T11:02:59;5.20;;;4.80;;
9052;SDS011;4561;47.450;7.516;2023-09-12T11:06:28;4.95;;;4.38;;
9052;SDS011;4561;47.450;7.516;2023-09-12T11:13:37;5.65;;;5.15;;
9052;SDS011;4561;47.450;7.516;2023-09-12T11:20:27;5.85;;;5.30;;
9052;SDS011;4561;47.450;7.516;2023-09-12T11:24:21;6.03;;;5.43;;
9052;SDS011;4561;47.450;7.516;2023-09-12T11:31:06;5.13;;;4.72;;
9052;SDS011;4561;47.450;7.516;2023-09-12T11:34:27;6.13;;;5.47;;
9052;SDS011;4561;47.450;7.516;2023-09-12T11:37:48;5.72;;;5.22;;
9052;SDS011;4561;47.450;7.516;2023-09-12T11:41:14;5.53;;;5.03;;
9052;SDS011;4561;47.450;7.516;2023-09-12T11:44:38;5.63;;;5.18;;
9052;SDS011;4561;47.450;7.516;2023-09-12T11:47:58;6.28;;;5.60;;
9052;SDS011;4561;47.450;7.516;2023-09-12T11:51:19;6.03;;;4.80;;
9052;SDS011;4561;47.450;7.516;2023-09-12T11:54:40;7.85;;;5.03;;
9052;SDS011;4561;47.450;7.516;2023-09-12T11:58:03;5.35;;;4.93;;
9052;SDS011;4561;47.450;7.516;2023-09-12T12:01:24;7.80;;;5.15;;
9052;SDS011;4561;47.450;7.516;2023-09-12T12:04:51;7.70;;;4.57;;
9052;SDS011;4561;47.450;7.516;2023-09-12T12:08:14;5.68;;;4.53;;
9052;SDS011;4561;47.450;7.516;2023-09-12T12:11:35;6.20;;;4.90;;
9052;SDS011;4561;47.450;7.516;2023-09-12T12:14:56;5.45;;;5.00;;
9052;SDS011;4561;47.450;7.516;2023-09-12T12:18:19;6.18;;;4.90;;
9052;SDS011;4561;47.450;7.516;2023-09-12T12:21:42;6.72;;;5.03;;
9052;SDS011;4561;47.450;7.516;2023-09-12T12:25:09;5.22;;;4.80;;
9052;SDS011;4561;47.450;7.516;2023-09-12T12:28:34;5.28;;;4.88;;
9052;SDS011;4561;47.450;7.516;2023-09-12T12:31:59;6.35;;;4.93;;
9052;SDS011;4561;47.450;7.516;2023-09-12T12:35:23;7.45;;;5.05;;
9052;SDS011;4561;47.450;7.516;2023-09-12T12:38:47;5.80;;;5.30;;
9052;SDS011;4561;47.450;7.516;2023-09-12T12:42:09;7.75;;;5.20;;
9052;SDS011;4561;47.450;7.516;2023-09-12T12:45:29;9.35;;;5.22;;
9052;SDS011;4561;47.450;7.516;2023-09-12T12:48:49;9.80;;;5.53;;
9052;SDS011;4561;47.450;7.516;2023-09-12T12:52:10;6.60;;;5.50;;
9052;SDS011;4561;47.450;7.516;2023-09-12T12:55:30;5.57;;;5.18;;
9052;SDS011;4561;47.450;7.516;2023-09-12T12:58:55;6.03;;;5.53;;
9052;SDS011;4561;47.450;7.516;2023-09-12T13:02:22;5.07;;;4.70;;
9052;SDS011;4561;47.450;7.516;2023-09-12T13:05:45;8.55;;;5.03;;
9052;SDS011;4561;47.450;7.516;2023-09-12T13:09:05;6.38;;;5.57;;
9052;SDS011;4561;47.450;7.516;2023-09-12T13:12:25;8.07;;;5.40;;
9052;SDS011;4561;47.450;7.516;2023-09-12T13:15:46;6.50;;;5.70;;
9052;SDS011;4561;47.450;7.516;2023-09-12T13:19:06;10.63;;;5.47;;
9052;SDS011;4561;47.450;7.516;2023-09-12T13:22:29;10.10;;;5.70;;
9052;SDS011;4561;47.450;7.516;2023-09-12T13:25:49;6.55;;;5.20;;
9052;SDS011;4561;47.450;7.516;2023-09-12T13:29:10;7.57;;;5.35;;
9052;SDS011;4561;47.450;7.516;2023-09-12T13:32:30;6.43;;;5.38;;
9052;SDS011;4561;47.450;7.516;2023-09-12T13:35:51;6.72;;;5.70;;
9052;SDS011;4561;47.450;7.516;2023-09-12T13:39:11;10.75;;;5.75;;
9052;SDS011;4561;47.450;7.516;2023-09-12T13:42:32;5.85;;;5.32;;
9052;SDS011;4561;47.450;7.516;2023-09-12T13:45:53;6.25;;;5.35;;
9052;SDS011;4561;47.450;7.516;2023-09-12T13:49:15;8.80;;;5.80;;
9052;SDS011;4561;47.450;7.516;2023-09-12T13:52:36;7.30;;;5.63;;
9052;SDS011;4561;47.450;7.516;2023-09-12T13:55:56;6.10;;;5.50;;
9052;SDS011;4561;47.450;7.516;2023-09-12T13:59:18;6.38;;;5.32;;
9052;SDS011;4561;47.450;7.516;2023-09-12T14:02:40;6.63;;;5.78;;
9052;SDS011;4561;47.450;7.516;2023-09-12T14:06:04;7.45;;;5.57;;
9052;SDS011;4561;47.450;7.516;2023-09-12T14:09:28;6.65;;;5.78;;
9052;SDS011;4561;47.450;7.516;2023-09-12T14:12:48;8.68;;;5.75;;
9052;SDS011;4561;47.450;7.516;2023-09-12T14:16:09;7.57;;;5.70;;
9052;SDS011;4561;47.450;7.516;2023-09-12T14:19:29;6.47;;;5.78;;
9052;SDS011;4561;47.450;7.516;2023-09-12T14:22:54;6.82;;;6.20;;
9052;SDS011;4561;47.450;7.516;2023-09-12T14:26:18;7.20;;;5.70;;
9052;SDS011;4561;47.450;7.516;2023-09-12T14:29:38;6.10;;;5.60;;
9052;SDS011;4561;47.450;7.516;2023-09-12T14:32:59;7.80;;;6.15;;
9052;SDS011;4561;47.450;7.516;2023-09-12T14:36:22;7.80;;;5.65;;
9052;SDS011;4561;47.450;7.516;2023-09-12T14:39:43;8.73;;;6.07;;
9052;SDS011;4561;47.450;7.516;2023-09-12T14:43:03;8.57;;;5.88;;
9052;SDS011;4561;47.450;7.516;2023-09-12T14:46:23;6.32;;;5.72;;
9052;SDS011;4561;47.450;7.516;2023-09-12T14:49:46;6.78;;;5.90;;
9052;SDS011;4561;47.450;7.516;2023-09-12T14:53:06;6.10;;;5.50;;
9052;SDS011;4561;47.450;7.516;2023-09-12T14:56:27;6.03;;;5.53;;
9052;SDS011;4561;47.450;7.516;2023-09-12T14:59:50;12.10;;;5.65;;
9052;SDS011;4561;47.450;7.516;2023-09-12T15:03:11;6.80;;;6.18;;
9052;SDS011;4561;47.450;7.516;2023-09-12T15:06:34;8.20;;;6.22;;
9052;SDS011;4561;47.450;7.516;2023-09-12T15:09:54;8.27;;;5.97;;
9052;SDS011;4561;47.450;7.516;2023-09-12T15:13:15;7.32;;;5.65;;
9052;SDS011;4561;47.450;7.516;2023-09-12T15:16:35;6.60;;;5.97;;
9052;SDS011;4561;47.450;7.516;2023-09-12T15:19:59;9.02;;;6.70;;
9052;SDS011;4561;47.450;7.516;2023-09-12T15:23:19;6.75;;;6.07;;
9052;SDS011;4561;47.450;7.516;2023-09-12T15:26:42;7.72;;;6.57;;
9052;SDS011;4561;47.450;7.516;2023-09-12T15:30:03;6.38;;;5.88;;
9052;SDS011;4561;47.450;7.516;2023-09-12T15:33:25;7.47;;;5.95;;
9052;SDS011;4561;47.450;7.516;2023-09-12T15:36:47;8.32;;;5.82;;
9052;SDS011;4561;47.450;7.516;2023-09-12T15:40:08;7.22;;;6.05;;
9052;SDS011;4561;47.450;7.516;2023-09-12T15:43:29;9.48;;;7.45;;
9052;SDS011;4561;47.450;7.516;2023-09-12T15:46:49;7.03;;;6.38;;
9052;SDS011;4561;47.450;7.516;2023-09-12T15:50:15;8.20;;;6.03;;
9052;SDS011;4561;47.450;7.516;2023-09-12T15:53:36;8.18;;;6.03;;
9052;SDS011;4561;47.450;7.516;2023-09-12T15:56:56;6.13;;;5.63;;
9052;SDS011;4561;47.450;7.516;2023-09-12T16:00:19;7.72;;;5.95;;
9052;SDS011;4561;47.450;7.516;2023-09-12T16:03:39;10.02;;;6.03;;
9052;SDS011;4561;47.450;7.516;2023-09-12T16:06:59;10.25;;;8.80;;
9052;SDS011;4561;47.450;7.516;2023-09-12T16:10:22;7.18;;;6.30;;
9052;SDS011;4561;47.450;7.516;2023-09-12T16:13:43;14.32;;;6.60;;
9052;SDS011;4561;47.450;7.516;2023-09-12T16:17:03;9.95;;;6.20;;
9052;SDS011;4561;47.450;7.516;2023-09-12T16:20:24;6.68;;;6.07;;
9052;SDS011;4561;47.450;7.516;2023-09-12T16:23:44;7.10;;;6.07;;
9052;SDS011;4561;47.450;7.516;2023-09-12T16:27:04;10.13;;;5.75;;
9052;SDS011;4561;47.450;7.516;2023-09-12T16:30:25;7.35;;;6.13;;
9052;SDS011;4561;47.450;7.516;2023-09-12T16:33:45;7.03;;;6.30;;
9052;SDS011;4561;47.450;7.516;2023-09-12T16:37:05;7.28;;;4.93;;
9052;SDS011;4561;47.450;7.516;2023-09-12T16:40:26;11.00;;;4.50;;
9052;SDS011;4561;47.450;7.516;2023-09-12T16:43:46;6.85;;;3.92;;
9052;SDS011;4561;47.450;7.516;2023-09-12T16:47:07;9.82;;;3.90;;
9052;SDS011;4561;47.450;7.516;2023-09-12T16:50:28;9.35;;;4.25;;
9052;SDS011;4561;47.450;7.516;2023-09-12T16:53:49;8.50;;;4.28;;
9052;SDS011;4561;47.450;7.516;2023-09-12T16:57:12;4.95;;;4.07;;
9052;SDS011;4561;47.450;7.516;2023-09-12T17:00:35;6.53;;;4.10;;
9052;SDS011;4561;47.450;7.516;2023-09-12T17:03:59;11.60;;;4.75;;
9052;SDS011;4561;47.450;7.516;2023-09-12T17:07:20;10.75;;;4.25;;
9052;SDS011;4561;47.450;7.516;2023-09-12T17:10:45;8.57;;;3.85;;
9052;SDS011;4561;47.450;7.516;2023-09-12T17:14:05;7.07;;;4.45;;
9052;SDS011;4561;47.450;7.516;2023-09-12T17:17:26;9.07;;;4.55;;
9052;SDS011;4561;47.450;7.516;2023-09-12T17:20:46;6.38;;;4.57;;
9052;SDS011;4561;47.450;7.516;2023-09-12T17:24:08;6.97;;;4.60;;
9052;SDS011;4561;47.450;7.516;2023-09-12T17:27:30;6.45;;;4.32;;
9052;SDS011;4561;47.450;7.516;2023-09-12T17:30:51;5.45;;;4.70;;
9052;SDS011;4561;47.450;7.516;2023-09-12T17:34:13;9.00;;;4.75;;
9052;SDS011;4561;47.450;7.516;2023-09-12T17:37:33;5.57;;;4.78;;
9052;SDS011;4561;47.450;7.516;2023-09-12T17:40:54;9.82;;;4.85;;
9052;SDS011;4561;47.450;7.516;2023-09-12T17:44:14;8.88;;;4.68;;
9052;SDS011;4561;47.450;7.516;2023-09-12T17:47:35;6.82;;;4.57;;
9052;SDS011;4561;47.450;7.516;2023-09-12T17:50:57;6.00;;;5.03;;
9052;SDS011;4561;47.450;7.516;2023-09-12T17:54:18;9.63;;;4.90;;
9052;SDS011;4561;47.450;7.516;2023-09-12T17:57:38;10.45;;;5.40;;
9052;SDS011;4561;47.450;7.516;2023-09-12T18:00:59;9.00;;;4.95;;
9052;SDS011;4561;47.450;7.516;2023-09-12T18:04:23;5.80;;;4.95;;
9052;SDS011;4561;47.450;7.516;2023-09-12T18:07:44;7.15;;;5.22;;
9052;SDS011;4561;47.450;7.516;2023-09-12T18:11:08;11.25;;;5.07;;
9052;SDS011;4561;47.450;7.516;2023-09-12T18:14:28;7.15;;;5.50;;
9052;SDS011;4561;47.450;7.516;2023-09-12T18:17:48;10.52;;;5.38;;
9052;SDS011;4561;47.450;7.516;2023-09-12T18:21:09;12.95;;;5.70;;
9052;SDS011;4561;47.450;7.516;2023-09-12T18:24:29;8.35;;;5.35;;
9052;SDS011;4561;47.450;7.516;2023-09-12T18:27:50;14.32;;;5.55;;
9052;SDS011;4561;47.450;7.516;2023-09-12T18:31:11;9.60;;;6.15;;
9052;SDS011;4561;47.450;7.516;2023-09-12T18:34:32;8.57;;;5.85;;
9052;SDS011;4561;47.450;7.516;2023-09-12T18:37:53;7.50;;;5.97;;
9052;SDS011;4561;47.450;7.516;2023-09-12T18:41:13;9.80;;;5.20;;
9052;SDS011;4561;47.450;7.516;2023-09-12T18:44:38;13.05;;;5.90;;
9052;SDS011;4561;47.450;7.516;2023-09-12T18:47:58;9.23;;;5.15;;
9052;SDS011;4561;47.450;7.516;2023-09-12T18:51:18;9.60;;;5.47;;
9052;SDS011;4561;47.450;7.516;2023-09-12T18:54:39;9.75;;;5.95;;
9052;SDS011;4561;47.450;7.516;2023-09-12T18:57:59;6.00;;;5.40;;
9052;SDS011;4561;47.450;7.516;2023-09-12T19:01:20;8.48;;;5.82;;
9052;SDS011;4561;47.450;7.516;2023-09-12T19:04:40;6.30;;;5.70;;
9052;SDS011;4561;47.450;7.516;2023-09-12T19:08:01;9.50;;;5.88;;
9052;SDS011;4561;47.450;7.516;2023-09-12T19:11:23;7.95;;;6.10;;
9052;SDS011;4561;47.450;7.516;2023-09-12T19:14:47;6.00;;;5.50;;
9052;SDS011;4561;47.450;7.516;2023-09-12T19:18:09;9.57;;;5.97;;
9052;SDS011;4561;47.450;7.516;2023-09-12T19:21:29;10.65;;;6.00;;
9052;SDS011;4561;47.450;7.516;2023-09-12T19:24:50;10.57;;;6.40;;
9052;SDS011;4561;47.450;7.516;2023-09-12T19:28:11;11.57;;;5.55;;
9052;SDS011;4561;47.450;7.516;2023-09-12T19:31:31;7.47;;;6.05;;
9052;SDS011;4561;47.450;7.516;2023-09-12T19:34:51;10.60;;;6.13;;
9052;SDS011;4561;47.450;7.516;2023-09-12T19:38:15;13.85;;;5.15;;
9052;SDS011;4561;47.450;7.516;2023-09-12T19:41:38;6.22;;;5.60;;
9052;SDS011;4561;47.450;7.516;2023-09-12T19:45:00;7.35;;;5.72;;
9052;SDS011;4561;47.450;7.516;2023-09-12T19:48:21;7.93;;;6.20;;
9052;SDS011;4561;47.450;7.516;2023-09-12T19:51:41;7.18;;;6.03;;
9052;SDS011;4561;47.450;7.516;2023-09-12T19:55:03;7.45;;;5.65;;
9052;SDS011;4561;47.450;7.516;2023-09-12T19:58:25;6.78;;;5.93;;
9052;SDS011;4561;47.450;7.516;2023-09-12T20:01:46;9.02;;;5.75;;
9052;SDS011;4561;47.450;7.516;2023-09-12T20:05:08;9.70;;;5.90;;
9052;SDS011;4561;47.450;7.516;2023-09-12T20:08:32;8.40;;;5.88;;
9052;SDS011;4561;47.450;7.516;2023-09-12T20:11:52;6.45;;;5.78;;
9052;SDS011;4561;47.450;7.516;2023-09-12T20:15:13;11.85;;;5.93;;
9052;SDS011;4561;47.450;7.516;2023-09-12T20:18:35;6.15;;;5.53;;
9052;SDS011;4561;47.450;7.516;2023-09-12T20:21:56;6.78;;;5.80;;
9052;SDS011;4561;47.450;7.516;2023-09-12T20:25:19;7.10;;;5.72;;
9052;SDS011;4561;47.450;7.516;2023-09-12T20:28:42;6.60;;;6.00;;
9052;SDS011;4561;47.450;7.516;2023-09-12T20:32:02;8.75;;;5.82;;
9052;SDS011;4561;47.450;7.516;2023-09-12T20:35:23;7.80;;;5.78;;
9052;SDS011;4561;47.450;7.516;2023-09-12T20:38:46;7.55;;;5.47;;
9052;SDS011;4561;47.450;7.516;2023-09-12T20:42:10;9.38;;;5.80;;
9052;SDS011;4561;47.450;7.516;2023-09-12T20:45:30;12.30;;;5.45;;
9052;SDS011;4561;47.450;7.516;2023-09-12T20:48:51;7.05;;;5.57;;
9052;SDS011;4561;47.450;7.516;2023-09-12T20:52:11;9.38;;;6.20;;
9052;SDS011;4561;47.450;7.516;2023-09-12T20:55:40;7.68;;;5.47;;
9052;SDS011;4561;47.450;7.516;2023-09-12T20:59:03;8.07;;;5.35;;
9052;SDS011;4561;47.450;7.516;2023-09-12T21:02:28;6.97;;;5.47;;
9052;SDS011;4561;47.450;7.516;2023-09-12T21:05:53;7.75;;;6.00;;
9052;SDS011;4561;47.450;7.516;2023-09-12T21:09:13;7.35;;;5.50;;
9052;SDS011;4561;47.450;7.516;2023-09-12T21:12:35;9.45;;;5.95;;
9052;SDS011;4561;47.450;7.516;2023-09-12T21:15:55;7.00;;;4.55;;